Time;durP1;ratioP1;P1;durP2;ratioP2;P2;SDS_P1;SDS_P2;PMS_P1;PMS_P2;Temp;Humidity;BMP_temperature;BMP_pressure;BME280_temperature;BME280_humidity;BME280_pressure;Samples;Min_cycle;Max_cycle;Signal;HPM_P1;HPM_P2
2022/10/03 00:01:09;;;;;;;;;;;;;;;25.85;46.24;94902.84;4929248;28;7196;-59
2022/10/03 00:03:46;;;;;;;;;;;;;;;25.83;46.12;94902.59;4954822;28;7227;-58
2022/10/03 00:06:59;;;;;;;;;;;;;;;25.82;45.49;94901.06;4954250;28;7183;-58
2022/10/03 00:09:47;;;;;;;;;;;;;;;25.83;46.13;94903.34;4958886;28;7215;-58
2022/10/03 00:12:50;;;;;;;;;;;;;;;25.84;45.66;94904.84;4949430;28;7077;-59
2022/10/03 00:15:48;;;;;;;;;;;;;;;25.81;45.75;94905.84;4986466;28;9378;-58
2022/10/03 00:21:53;;;;;;;;;;;;;;;25.79;45.47;94908.38;5044549;28;7535;-58
2022/10/03 00:24:21;;;;;;;;;;;;;;;25.76;46.06;94908.59;5004410;28;7240;-58
2022/10/03 00:27:17;;;;;;;;;;;;;;;25.78;45.47;94919.88;5015216;28;8985;-58
2022/10/03 00:30:23;;;;;;;;;;;;;;;25.79;46.44;94902.84;5033376;28;7489;-58
2022/10/03 00:33:28;;;;;;;;;;;;;;;25.77;45.50;94913.63;5031780;28;7695;-58
2022/10/03 00:36:52;;;;;;;;;;;;;;;25.79;45.44;94919.38;5011660;28;7640;-58
2022/10/03 00:39:41;;;;;;;;;;;;;;;25.78;45.75;94909.59;4954043;28;8639;-58
2022/10/03 00:42:42;;;;;;;;;;;;;;;25.78;46.05;94917.88;4953545;28;6995;-59
2022/10/03 00:45:44;;;;;;;;;;;;;;;25.77;45.86;94924.66;4953724;28;7805;-58
2022/10/03 00:48:28;;;;;;;;;;;;;;;25.77;46.01;94921.13;4953578;28;7816;-58
2022/10/03 00:51:25;;;;;;;;;;;;;;;25.76;46.18;94919.63;4967235;28;7691;-58
2022/10/03 00:54:19;;;;;;;;;;;;;;;25.79;45.61;94916.63;4952626;28;8841;-58
2022/10/03 00:57:05;;;;;;;;;;;;;;;25.79;46.26;94916.63;4954030;28;7884;-58
2022/10/03 00:59:42;;;;;;;;;;;;;;;25.77;45.60;94921.88;4953653;28;7263;-59
2022/10/03 01:02:56;;;;;;;;;;;;;;;25.80;46.36;94931.13;4970704;28;9210;-58
2022/10/03 01:05:50;;;;;;;;;;;;;;;25.81;45.51;94924.38;4953086;28;8883;-58
2022/10/03 01:08:18;;;;;;;;;;;;;;;25.79;45.84;94933.16;4985192;28;10151;-58
2022/10/03 01:10:59;;;;;;;;;;;;;;;25.78;46.03;94939.16;4983077;28;7247;-58
2022/10/03 01:13:53;;;;;;;;;;;;;;;25.76;46.43;94928.63;4970105;28;7124;-58
2022/10/03 01:16:19;;;;;;;;;;;;;;;25.75;45.53;94935.38;4985763;28;7057;-58
2022/10/03 01:19:01;;;;;;;;;;;;;;;25.76;45.98;94939.66;4971357;28;7547;-58
2022/10/03 01:21:35;;;;;;;;;;;;;;;25.70;45.73;94941.66;4981446;28;9069;-59
2022/10/03 01:24:17;;;;;;;;;;;;;;;25.70;46.23;94938.91;4982385;28;7040;-59
2022/10/03 01:27:12;;;;;;;;;;;;;;;25.72;46.49;94939.16;4974248;28;9392;-58
2022/10/03 01:33:09;;;;;;;;;;;;;;;25.75;45.78;94934.66;4980836;28;7452;-58
2022/10/03 01:36:14;;;;;;;;;;;;;;;25.74;46.39;94935.91;4967672;28;8562;-58
2022/10/03 01:39:18;;;;;;;;;;;;;;;25.74;45.49;94944.91;4975519;28;7009;-59
2022/10/03 01:41:48;;;;;;;;;;;;;;;25.72;46.28;94941.91;4976128;28;7250;-59
2022/10/03 01:44:48;;;;;;;;;;;;;;;25.76;46.01;94942.41;4992114;28;6972;-58
2022/10/03 01:47:33;;;;;;;;;;;;;;;25.72;45.79;94952.94;4977178;28;6990;-59
2022/10/03 01:50:46;;;;;;;;;;;;;;;25.74;45.76;94947.69;4989227;28;7963;-58
2022/10/03 01:53:59;;;;;;;;;;;;;;;25.70;46.51;94955.44;5019994;28;9068;-59
2022/10/03 01:56:54;;;;;;;;;;;;;;;25.70;45.86;94962.94;5012562;28;7272;-59
2022/10/03 01:59:59;;;;;;;;;;;;;;;25.67;46.54;94970.19;5011342;28;8946;-59
2022/10/03 02:02:37;;;;;;;;;;;;;;;25.69;45.47;94964.19;4965558;28;7230;-58
2022/10/03 02:05:03;;;;;;;;;;;;;;;25.69;45.51;94958.66;4972062;28;9041;-58
2022/10/03 02:08:16;;;;;;;;;;;;;;;25.66;45.45;94967.94;4969536;28;7204;-58
2022/10/03 02:11:07;;;;;;;;;;;;;;;25.67;45.50;94972.94;4978874;28;9033;-59
2022/10/03 02:13:48;;;;;;;;;;;;;;;25.66;45.89;94976.22;4953322;28;7225;-58
2022/10/03 02:16:52;;;;;;;;;;;;;;;25.66;46.05;94968.72;4966713;28;7241;-59
2022/10/03 02:20:17;;;;;;;;;;;;;;;25.68;46.36;94974.47;4973600;28;7406;-59
2022/10/03 02:22:49;;;;;;;;;;;;;;;25.66;45.47;94976.97;4931864;28;8764;-58
2022/10/03 02:25:26;;;;;;;;;;;;;;;25.64;46.29;94973.97;4925616;28;9023;-58
2022/10/03 02:28:07;;;;;;;;;;;;;;;25.64;46.16;94982.22;4924778;29;7872;-59
2022/10/03 02:31:31;;;;;;;;;;;;;;;25.64;46.35;94984.97;4933040;29;7364;-58
2022/10/03 02:34:15;;;;;;;;;;;;;;;25.64;46.30;94987.72;4979982;28;7819;-58
2022/10/03 02:37:18;;;;;;;;;;;;;;;25.66;45.47;94988.00;4986685;28;7222;-58
2022/10/03 02:40:38;;;;;;;;;;;;;;;25.68;46.16;94982.72;5004558;28;8820;-58
2022/10/03 02:43:31;;;;;;;;;;;;;;;25.64;45.50;94984.97;5028906;28;7195;-59
2022/10/03 02:46:11;;;;;;;;;;;;;;;25.62;46.22;94987.44;5025597;28;9005;-59
2022/10/03 02:49:00;;;;;;;;;;;;;;;25.63;45.49;94983.47;5016000;28;9050;-58
2022/10/03 02:51:49;;;;;;;;;;;;;;;25.65;46.29;94988.47;5027100;28;7109;-58
2022/10/03 02:54:44;;;;;;;;;;;;;;;25.65;46.28;94986.47;5039318;28;7946;-58
2022/10/03 03:00:38;;;;;;;;;;;;;;;25.64;45.88;94984.97;5063952;28;7236;-58
2022/10/03 03:03:32;;;;;;;;;;;;;;;25.66;45.39;94993.50;5071823;28;7331;-58
2022/10/03 03:06:33;;;;;;;;;;;;;;;25.64;46.02;94989.72;5062883;28;9745;-58
2022/10/03 03:09:46;;;;;;;;;;;;;;;25.61;46.38;94991.47;5054580;28;7124;-58
2022/10/03 03:13:07;;;;;;;;;;;;;;;25.65;45.26;94994.72;5050164;28;7148;-58
2022/10/03 03:16:21;;;;;;;;;;;;;;;25.62;46.23;94995.72;5073237;28;7131;-59
2022/10/03 03:19:10;;;;;;;;;;;;;;;25.61;46.35;95001.72;5071530;28;7223;-58
2022/10/03 03:21:43;;;;;;;;;;;;;;;25.62;45.98;95000.50;5061063;28;8551;-59
2022/10/03 03:24:41;;;;;;;;;;;;;;;25.63;46.20;95002.75;5059484;28;7221;-59
2022/10/03 03:27:46;;;;;;;;;;;;;;;25.65;45.45;95005.00;5049870;28;6973;-58
2022/10/03 03:30:43;;;;;;;;;;;;;;;25.63;45.95;95004.75;5071678;28;7416;-58
2022/10/03 03:33:51;;;;;;;;;;;;;;;25.64;46.19;95006.25;5079483;28;9595;-58
2022/10/03 03:37:01;;;;;;;;;;;;;;;25.65;45.50;95003.00;5065031;28;7170;-59
2022/10/03 03:39:30;;;;;;;;;;;;;;;25.66;45.83;94999.00;5052008;28;7191;-58
2022/10/03 03:42:19;;;;;;;;;;;;;;;25.65;45.98;95003.00;5061450;28;9521;-59
2022/10/03 03:45:07;;;;;;;;;;;;;;;25.63;45.92;95004.75;5055124;28;7126;-59
2022/10/03 03:48:01;;;;;;;;;;;;;;;25.67;45.33;95008.00;5055077;28;7494;-58
2022/10/03 03:50:51;;;;;;;;;;;;;;;25.63;45.49;95000.00;5054236;28;7298;-58
2022/10/03 03:53:55;;;;;;;;;;;;;;;25.65;45.90;94991.97;5054350;28;9813;-58
2022/10/03 04:00:16;;;;;;;;;;;;;;;25.61;46.34;94996.22;4996440;28;8067;-59
2022/10/03 04:06:11;;;;;;;;;;;;;;;25.60;46.21;94984.44;4990319;28;9028;-58
2022/10/03 04:09:15;;;;;;;;;;;;;;;25.62;45.90;94989.47;4994240;28;7115;-58
2022/10/03 04:11:58;;;;;;;;;;;;;;;25.59;45.85;94993.97;4992555;28;7435;-58
2022/10/03 04:14:43;;;;;;;;;;;;;;;25.58;46.33;94986.22;4987091;28;9403;-58
2022/10/03 04:20:39;;;;;;;;;;;;;;;25.54;45.46;94982.91;5001845;28;7199;-58
2022/10/03 04:23:21;;;;;;;;;;;;;;;25.57;46.24;94984.69;4984868;28;8720;-58
2022/10/03 04:26:06;;;;;;;;;;;;;;;25.59;46.11;94974.69;4985403;28;7267;-59
2022/10/03 04:29:05;;;;;;;;;;;;;;;25.58;46.24;94981.44;4984204;28;7510;-58
2022/10/03 04:32:07;;;;;;;;;;;;;;;25.57;45.40;94982.69;4997407;28;7820;-58
2022/10/03 04:34:48;;;;;;;;;;;;;;;25.61;45.69;94976.94;4996836;28;7319;-58
2022/10/03 04:37:54;;;;;;;;;;;;;;;25.62;45.84;94965.41;5056931;28;7251;-58
2022/10/03 04:41:01;;;;;;;;;;;;;;;25.62;45.25;94972.94;5070163;28;8476;-58
2022/10/03 04:44:12;;;;;;;;;;;;;;;25.57;45.92;94971.69;5069063;28;7240;-59
2022/10/03 04:47:27;;;;;;;;;;;;;;;25.55;46.52;94971.44;5066753;28;7235;-58
2022/10/03 04:50:12;;;;;;;;;;;;;;;25.55;46.18;94976.94;5030641;28;8909;-58
2022/10/03 04:52:54;;;;;;;;;;;;;;;25.52;46.48;94964.16;5014634;28;9685;-58
2022/10/03 04:55:49;;;;;;;;;;;;;;;25.52;46.24;94960.63;5030547;28;7280;-58
2022/10/03 04:58:38;;;;;;;;;;;;;;;25.51;47.42;94953.63;5009801;28;7275;-58
2022/10/03 05:01:48;;;;;;;;;;;;;;;25.47;47.00;94953.84;5028505;28;7364;-58
2022/10/03 05:04:22;;;;;;;;;;;;;;;25.46;46.84;94960.63;4932760;29;7409;-59
2022/10/03 05:07:24;;;;;;;;;;;;;;;25.42;47.40;94960.84;4932998;29;7063;-59
2022/10/03 05:10:25;;;;;;;;;;;;;;;25.39;47.88;94952.81;4929484;29;7205;-59
2022/10/03 05:13:16;;;;;;;;;;;;;;;25.37;47.31;94956.06;4914802;29;9630;-58
2022/10/03 05:16:41;;;;;;;;;;;;;;;25.32;47.96;94962.31;4914213;29;7403;-59
2022/10/03 05:19:40;;;;;;;;;;;;;;;25.31;47.91;94960.06;4896662;29;7022;-59
2022/10/03 05:22:43;;;;;;;;;;;;;;;25.27;47.62;94967.81;4891769;29;8502;-59
2022/10/03 05:26:03;;;;;;;;;;;;;;;25.25;47.97;94967.53;4877447;29;7557;-59
2022/10/03 05:29:16;;;;;;;;;;;;;;;25.25;47.54;94973.78;4863412;29;7450;-59
2022/10/03 05:31:57;;;;;;;;;;;;;;;25.26;47.37;94977.28;4808502;29;7780;-58
2022/10/03 05:34:29;;;;;;;;;;;;;;;25.23;48.37;94975.50;4804327;29;9464;-59
2022/10/03 05:37:38;;;;;;;;;;;;;;;25.18;48.60;94973.50;4840208;29;7215;-58
2022/10/03 05:40:54;;;;;;;;;;;;;;;25.22;47.69;94982.28;4824556;29;7444;-60
2022/10/03 05:43:27;;;;;;;;;;;;;;;25.28;47.03;94986.56;4806689;29;8529;-60
2022/10/03 05:46:20;;;;;;;;;;;;;;;25.37;47.60;94993.84;4803661;29;7348;-61
2022/10/03 05:49:26;;;;;;;;;;;;;;;25.44;47.34;94993.44;4782196;29;9414;-60
2022/10/03 05:52:26;;;;;;;;;;;;;;;25.48;46.62;94996.69;4782913;29;7206;-60
2022/10/03 05:55:22;;;;;;;;;;;;;;;25.51;46.93;95001.22;4842953;29;7282;-60
2022/10/03 05:58:01;;;;;;;;;;;;;;;25.53;46.31;95006.97;4895299;29;7231;-61
2022/10/03 06:00:50;;;;;;;;;;;;;;;25.54;46.78;95008.47;4891555;29;7223;-60
2022/10/03 06:03:15;;;;;;;;;;;;;;;25.50;46.16;95009.94;4872465;29;7209;-60
2022/10/03 06:06:11;;;;;;;;;;;;;;;25.50;47.11;95012.72;4894864;29;7021;-60
2022/10/03 06:09:17;;;;;;;;;;;;;;;25.51;45.95;95015.00;4999143;28;7883;-61
2022/10/03 06:12:19;;;;;;;;;;;;;;;25.56;46.54;95022.50;4991835;28;7792;-61
2022/10/03 06:15:36;;;;;;;;;;;;;;;25.57;46.66;95024.03;4982500;28;7993;-60
2022/10/03 06:18:31;;;;;;;;;;;;;;;25.56;46.41;95024.50;4982039;28;7240;-60
2022/10/03 06:21:03;;;;;;;;;;;;;;;25.57;46.80;95034.28;5058433;28;8930;-60
2022/10/03 06:23:53;;;;;;;;;;;;;;;25.56;46.26;95025.25;5073096;28;8104;-61
2022/10/03 06:26:47;;;;;;;;;;;;;;;25.57;45.70;95026.78;5062435;28;7288;-60
2022/10/03 06:29:53;;;;;;;;;;;;;;;25.55;45.79;95021.00;5038911;28;12294;-60
2022/10/03 06:32:51;;;;;;;;;;;;;;;25.52;46.69;95029.50;5052346;28;9470;-60
2022/10/03 06:36:02;;;;;;;;;;;;;;;25.52;46.36;95033.00;5046296;28;7271;-60
2022/10/03 06:38:56;;;;;;;;;;;;;;;25.54;45.80;95027.75;5040874;28;7439;-60
2022/10/03 06:42:12;;;;;;;;;;;;;;;25.55;45.88;95032.03;5039901;28;7268;-60
2022/10/03 06:52:11;;;;;;;;;;;;;;;25.56;46.01;95046.53;4979147;28;7056;-61
2022/10/03 06:55:19;;;;;;;;;;;;;;;25.56;45.96;95055.56;4973795;28;9235;-60
2022/10/03 06:58:19;;;;;;;;;;;;;;;25.57;45.55;95057.06;4962807;28;7288;-61
2022/10/03 07:01:23;;;;;;;;;;;;;;;25.58;45.85;95061.31;4907464;29;7359;-61
2022/10/03 07:04:42;;;;;;;;;;;;;;;25.56;46.66;95074.84;4907935;29;9345;-60
2022/10/03 07:07:42;;;;;;;;;;;;;;;25.51;46.37;95066.56;4835008;29;7161;-60
2022/10/03 07:10:38;;;;;;;;;;;;;;;25.53;46.62;95070.34;4847480;29;7090;-60
2022/10/03 07:13:48;;;;;;;;;;;;;;;25.56;45.48;95071.31;4847062;29;7176;-60
2022/10/03 07:16:49;;;;;;;;;;;;;;;25.53;46.22;95067.59;4816045;29;7258;-60
2022/10/03 07:19:59;;;;;;;;;;;;;;;25.54;46.23;95069.06;4829085;29;8955;-61
2022/10/03 07:22:44;;;;;;;;;;;;;;;25.55;46.41;95080.84;4829774;29;7201;-61
2022/10/03 07:25:29;;;;;;;;;;;;;;;25.53;46.22;95073.09;4843609;29;7263;-60
2022/10/03 07:28:06;;;;;;;;;;;;;;;25.51;45.72;95078.34;4857162;29;7463;-61
2022/10/03 07:31:21;;;;;;;;;;;;;;;25.48;46.50;95082.06;4856896;29;7416;-60
2022/10/03 07:34:29;;;;;;;;;;;;;;;25.47;45.77;95086.06;4857338;29;7237;-60
2022/10/03 07:40:12;;;;;;;;;;;;;;;25.47;46.25;95086.06;4968695;28;7729;-61
2022/10/03 07:43:14;;;;;;;;;;;;;;;25.48;46.67;95086.81;4968776;28;7262;-60
2022/10/03 07:45:59;;;;;;;;;;;;;;;25.49;46.26;95093.84;4964240;28;7269;-60
2022/10/03 07:49:11;;;;;;;;;;;;;;;25.49;45.89;95094.56;4972160;28;7222;-60
2022/10/03 07:55:31;;;;;;;;;;;;;;;25.49;46.10;95102.84;4985317;28;9466;-61
2022/10/03 07:58:18;;;;;;;;;;;;;;;25.49;46.17;95108.34;4987362;28;9078;-61
2022/10/03 08:01:12;;;;;;;;;;;;;;;25.46;46.28;95101.09;4981425;28;7341;-60
2022/10/03 08:04:15;;;;;;;;;;;;;;;25.47;46.52;95108.09;4991154;28;9008;-60
2022/10/03 08:07:08;;;;;;;;;;;;;;;25.50;45.82;95111.88;4989613;28;7640;-60
2022/10/03 08:10:24;;;;;;;;;;;;;;;25.51;45.64;95108.63;4992490;28;8256;-61
2022/10/03 08:13:41;;;;;;;;;;;;;;;25.52;45.57;95114.88;4954738;28;8380;-61
2022/10/03 08:16:59;;;;;;;;;;;;;;;25.52;45.64;95120.38;4935872;28;9073;-60
2022/10/03 08:20:11;;;;;;;;;;;;;;;25.49;46.34;95113.13;4935652;28;7237;-60
2022/10/03 08:22:49;;;;;;;;;;;;;;;25.48;45.70;95115.13;4935984;28;7955;-61
2022/10/03 08:25:29;;;;;;;;;;;;;;;25.49;45.72;95111.09;4932157;28;9142;-61
2022/10/03 08:28:17;;;;;;;;;;;;;;;25.46;45.98;95109.34;4949955;28;7499;-60
2022/10/03 08:31:23;;;;;;;;;;;;;;;25.48;46.71;95111.59;4947438;28;7290;-60
2022/10/03 08:34:09;;;;;;;;;;;;;;;25.46;46.23;95120.38;4991370;28;9068;-61
2022/10/03 08:37:20;;;;;;;;;;;;;;;25.46;46.61;95119.59;4990907;28;7290;-61
2022/10/03 08:40:28;;;;;;;;;;;;;;;25.48;46.57;95119.88;4965592;28;7136;-61
2022/10/03 08:43:13;;;;;;;;;;;;;;;25.47;45.76;95113.59;4955141;28;7302;-60
2022/10/03 08:46:04;;;;;;;;;;;;;;;25.48;46.64;95120.63;4944860;28;7281;-60
2022/10/03 08:48:49;;;;;;;;;;;;;;;25.48;46.67;95117.88;4967235;28;7203;-61
2022/10/03 08:51:30;;;;;;;;;;;;;;;25.50;46.49;95114.63;5002195;28;9008;-60
2022/10/03 08:54:04;;;;;;;;;;;;;;;25.48;45.98;95111.59;4995869;28;8590;-61
2022/10/03 08:57:16;;;;;;;;;;;;;;;25.45;46.74;95116.09;5004697;28;9752;-61
2022/10/03 09:00:30;;;;;;;;;;;;;;;25.45;46.73;95113.34;4991569;28;6980;-60
2022/10/03 09:03:33;;;;;;;;;;;;;;;25.44;46.79;95117.34;4982644;28;7299;-60
2022/10/03 09:06:37;;;;;;;;;;;;;;;25.42;46.78;95115.06;4992263;28;7406;-61
2022/10/03 09:09:10;;;;;;;;;;;;;;;25.42;46.21;95120.59;4989055;28;7417;-60
2022/10/03 09:12:17;;;;;;;;;;;;;;;25.43;46.75;95110.31;4992051;28;7148;-60
2022/10/03 09:14:51;;;;;;;;;;;;;;;25.43;45.86;95113.84;4936071;28;7316;-61
2022/10/03 09:17:45;;;;;;;;;;;;;;;25.45;45.86;95115.38;4934432;28;7842;-60
2022/10/03 09:20:56;;;;;;;;;;;;;;;25.47;46.13;95108.09;4972558;28;7327;-60
2022/10/03 09:23:46;;;;;;;;;;;;;;;25.46;46.19;95112.09;4872629;29;9397;-60
2022/10/03 09:26:46;;;;;;;;;;;;;;;25.48;46.03;95103.34;4885113;29;7121;-60
2022/10/03 09:29:36;;;;;;;;;;;;;;;25.46;46.28;95100.31;4884240;29;7358;-60
2022/10/03 09:32:25;;;;;;;;;;;;;;;25.43;46.44;95097.31;4876959;29;7085;-60
2022/10/03 09:35:41;;;;;;;;;;;;;;;25.46;46.00;95094.81;4877452;29;9299;-60
2022/10/03 09:38:33;;;;;;;;;;;;;;;25.44;46.43;95092.56;4855668;29;9280;-60
2022/10/03 09:41:14;;;;;;;;;;;;;;;25.42;46.06;95092.31;4871687;29;9536;-60
2022/10/03 09:44:13;;;;;;;;;;;;;;;25.44;45.84;95087.06;4870172;29;7270;-60
2022/10/03 09:46:39;;;;;;;;;;;;;;;25.43;46.29;95080.03;4855105;29;6993;-60
2022/10/03 09:49:42;;;;;;;;;;;;;;;25.43;46.92;95083.53;4886191;29;7354;-61
2022/10/03 09:52:31;;;;;;;;;;;;;;;25.44;46.49;95081.56;4914064;29;9284;-61
2022/10/03 09:55:00;;;;;;;;;;;;;;;25.43;45.98;95080.03;4914561;29;7700;-60
2022/10/03 09:57:58;;;;;;;;;;;;;;;25.45;46.70;95076.81;4946553;28;7183;-60
2022/10/03 10:00:51;;;;;;;;;;;;;;;25.43;46.69;95069.00;5024416;28;7236;-60
2022/10/03 10:03:43;;;;;;;;;;;;;;;25.47;46.82;95066.78;5040149;28;7442;-60
2022/10/03 10:06:24;;;;;;;;;;;;;;;25.46;46.21;95062.53;4986261;28;7091;-60
2022/10/03 10:09:21;;;;;;;;;;;;;;;25.47;46.16;95063.28;4970242;28;7121;-60
2022/10/03 10:12:37;;;;;;;;;;;;;;;25.47;46.40;95058.50;4988458;28;7434;-61
2022/10/03 10:15:37;;;;;;;;;;;;;;;25.47;46.31;95055.75;4949920;28;7235;-60
2022/10/03 10:18:32;;;;;;;;;;;;;;;25.47;46.58;95058.50;4932788;28;6995;-60
2022/10/03 10:21:16;;;;;;;;;;;;;;;25.49;46.40;95056.00;4935995;28;7374;-60
2022/10/03 10:24:17;;;;;;;;;;;;;;;25.50;46.48;95051.28;4944118;28;7025;-60
2022/10/03 10:27:29;;;;;;;;;;;;;;;25.48;46.49;95054.53;4937727;28;7097;-61
2022/10/03 10:30:32;;;;;;;;;;;;;;;25.49;45.73;95056.00;4947570;28;7480;-60
2022/10/03 10:33:42;;;;;;;;;;;;;;;25.48;45.60;95060.03;4947013;28;7440;-60
2022/10/03 10:36:56;;;;;;;;;;;;;;;25.48;46.02;95060.03;4937163;28;9382;-60
2022/10/03 10:39:52;;;;;;;;;;;;;;;25.49;46.71;95063.53;4948279;28;7686;-60
2022/10/03 10:42:55;;;;;;;;;;;;;;;25.48;46.76;95062.03;4942453;28;7233;-60
2022/10/03 10:46:04;;;;;;;;;;;;;;;25.46;46.38;95061.78;4960530;28;7859;-60
2022/10/03 10:48:44;;;;;;;;;;;;;;;25.43;47.01;95066.25;4938542;28;7207;-60
2022/10/03 10:51:37;;;;;;;;;;;;;;;25.43;47.11;95064.25;4947890;28;7258;-61
2022/10/03 10:54:15;;;;;;;;;;;;;;;25.46;46.69;95059.00;4946245;28;7174;-60
2022/10/03 10:56:47;;;;;;;;;;;;;;;25.45;46.81;95055.50;4948189;28;7219;-60
2022/10/03 10:59:57;;;;;;;;;;;;;;;25.46;46.91;95056.25;4947522;28;7005;-61
2022/10/03 11:02:44;;;;;;;;;;;;;;;25.45;47.13;95050.00;4953289;28;7225;-60
2022/10/03 11:05:33;;;;;;;;;;;;;;;25.45;47.09;95055.50;4997784;28;7240;-60
2022/10/03 11:08:17;;;;;;;;;;;;;;;25.44;46.30;95048.50;4995108;28;8338;-60
2022/10/03 11:14:18;;;;;;;;;;;;;;;25.44;46.10;95051.25;5005283;28;8504;-60
2022/10/03 11:17:18;;;;;;;;;;;;;;;25.45;46.99;95046.50;5004684;28;8814;-61
2022/10/03 11:20:18;;;;;;;;;;;;;;;25.45;47.00;95049.25;5029080;28;7325;-60
2022/10/03 11:23:14;;;;;;;;;;;;;;;25.43;46.20;95058.00;5042172;28;7652;-61
2022/10/03 11:26:02;;;;;;;;;;;;;;;25.43;47.10;95056.00;5066489;28;7060;-61
2022/10/03 11:28:52;;;;;;;;;;;;;;;25.44;46.50;95054.00;5054573;28;7589;-60
2022/10/03 11:31:29;;;;;;;;;;;;;;;25.45;46.40;95061.00;5061890;28;7070;-60
2022/10/03 11:34:41;;;;;;;;;;;;;;;25.46;46.12;95056.25;5065761;28;9084;-60
2022/10/03 11:37:44;;;;;;;;;;;;;;;25.42;47.35;95051.72;5057753;28;7291;-60
2022/10/03 11:40:35;;;;;;;;;;;;;;;25.46;46.63;95048.00;5061864;28;7245;-61
2022/10/03 11:43:44;;;;;;;;;;;;;;;25.48;47.12;95051.00;5047121;28;9019;-60
2022/10/03 11:46:35;;;;;;;;;;;;;;;25.46;46.49;95051.50;5033403;28;9359;-60
2022/10/03 11:49:24;;;;;;;;;;;;;;;25.46;46.34;95051.50;5046160;28;7051;-60
2022/10/03 11:52:10;;;;;;;;;;;;;;;25.47;46.67;95053.00;5045809;28;9039;-61
2022/10/03 11:54:44;;;;;;;;;;;;;;;25.47;46.82;95047.50;5031761;28;7216;-61
2022/10/03 11:57:38;;;;;;;;;;;;;;;25.48;46.79;95048.25;5049380;28;7639;-60
2022/10/03 12:00:22;;;;;;;;;;;;;;;25.48;46.15;95054.53;5060694;28;7834;-59
2022/10/03 12:02:58;;;;;;;;;;;;;;;25.46;46.01;95046.00;5039368;28;8530;-60
2022/10/03 12:09:07;;;;;;;;;;;;;;;25.47;46.71;95042.00;4947276;29;8961;-60
2022/10/03 12:12:05;;;;;;;;;;;;;;;25.48;46.16;95042.75;4938818;28;7221;-60
2022/10/03 12:14:43;;;;;;;;;;;;;;;25.47;46.33;95033.00;4908793;29;9020;-60
2022/10/03 12:17:32;;;;;;;;;;;;;;;25.47;46.63;95042.00;4925635;29;8593;-61
2022/10/03 12:20:22;;;;;;;;;;;;;;;25.50;45.96;95037.50;4926492;29;7431;-61
2022/10/03 12:23:14;;;;;;;;;;;;;;;25.48;46.46;95040.75;4916450;29;8229;-61
2022/10/03 12:25:45;;;;;;;;;;;;;;;25.50;46.78;95043.75;4925888;29;9149;-60
2022/10/03 12:28:24;;;;;;;;;;;;;;;25.49;46.38;95038.75;4907685;29;7480;-60
2022/10/03 12:31:12;;;;;;;;;;;;;;;25.49;46.86;95038.75;4924104;29;7118;-61
2022/10/03 12:34:08;;;;;;;;;;;;;;;25.49;46.54;95045.00;4927772;29;7818;-60
2022/10/03 12:37:12;;;;;;;;;;;;;;;25.49;45.98;95038.75;4928041;29;8733;-61
2022/10/03 12:39:40;;;;;;;;;;;;;;;25.50;45.90;95040.25;4878673;29;10046;-61
2022/10/03 12:42:34;;;;;;;;;;;;;;;25.49;46.94;95039.50;4881149;29;7114;-60
2022/10/03 12:45:12;;;;;;;;;;;;;;;25.48;46.07;95038.00;4919267;28;7166;-60
2022/10/03 12:48:00;;;;;;;;;;;;;;;25.49;46.92;95036.75;4953334;28;9298;-61
2022/10/03 12:51:10;;;;;;;;;;;;;;;25.48;46.95;95040.00;4956985;28;7878;-60
2022/10/03 12:54:19;;;;;;;;;;;;;;;25.50;46.81;95034.75;5007273;28;7216;-61
2022/10/03 12:57:35;;;;;;;;;;;;;;;25.48;46.02;95034.50;5005883;28;6987;-61
2022/10/03 13:00:19;;;;;;;;;;;;;;;25.49;45.91;95033.25;4969954;28;7374;-60
2022/10/03 13:02:53;;;;;;;;;;;;;;;25.50;46.82;95029.22;4957457;28;9136;-61
2022/10/03 13:05:39;;;;;;;;;;;;;;;25.51;45.99;95026.00;4953772;28;6997;-60
2022/10/03 13:08:21;;;;;;;;;;;;;;;25.51;46.44;95020.50;4947101;28;7481;-60
2022/10/03 13:11:27;;;;;;;;;;;;;;;25.51;46.52;95023.25;4954986;28;7195;-60
2022/10/03 13:14:12;;;;;;;;;;;;;;;25.50;46.61;95018.97;4992730;28;9943;-60
2022/10/03 13:17:11;;;;;;;;;;;;;;;25.49;45.85;95016.72;4985007;28;9747;-61
2022/10/03 13:20:11;;;;;;;;;;;;;;;25.50;45.68;95021.72;4991105;28;9565;-60
2022/10/03 13:23:02;;;;;;;;;;;;;;;25.50;46.32;95024.47;4944316;28;9642;-60
2022/10/03 13:25:44;;;;;;;;;;;;;;;25.49;46.65;95017.47;4956567;28;7073;-60
2022/10/03 13:28:30;;;;;;;;;;;;;;;25.48;46.38;95021.47;4974036;28;7251;-60
2022/10/03 13:31:36;;;;;;;;;;;;;;;25.48;45.66;95017.97;4970679;28;9649;-60
2022/10/03 13:34:29;;;;;;;;;;;;;;;25.49;46.18;95017.47;4881306;29;9149;-60
2022/10/03 13:37:24;;;;;;;;;;;;;;;25.49;45.86;95020.22;4934280;28;7345;-60
2022/10/03 13:40:00;;;;;;;;;;;;;;;25.50;46.72;95023.72;4962665;28;7294;-61
2022/10/03 13:42:52;;;;;;;;;;;;;;;25.48;46.85;95020.72;4948898;28;7171;-60
2022/10/03 13:45:30;;;;;;;;;;;;;;;25.49;46.63;95017.47;4966853;28;7608;-60
2022/10/03 13:48:22;;;;;;;;;;;;;;;25.49;45.89;95017.47;4958775;28;8072;-61
2022/10/03 13:51:26;;;;;;;;;;;;;;;25.47;45.84;95013.72;4947859;28;9055;-60
2022/10/03 13:54:38;;;;;;;;;;;;;;;25.48;46.32;95010.47;4895807;29;7084;-60
2022/10/03 13:57:23;;;;;;;;;;;;;;;25.49;46.67;95011.94;4884497;29;7451;-60
2022/10/03 14:00:17;;;;;;;;;;;;;;;25.50;46.50;95005.22;4893535;29;7276;-60
2022/10/03 14:03:15;;;;;;;;;;;;;;;25.51;45.83;95012.22;4890931;29;7521;-61
2022/10/03 14:06:10;;;;;;;;;;;;;;;25.50;46.09;95010.72;4892307;29;7563;-60
2022/10/03 14:08:45;;;;;;;;;;;;;;;25.52;46.92;95001.94;4899615;29;7260;-60
2022/10/03 14:11:23;;;;;;;;;;;;;;;25.51;46.45;95003.97;4925701;28;7298;-60
2022/10/03 14:13:53;;;;;;;;;;;;;;;25.51;47.14;94992.94;4929992;28;7057;-60
2022/10/03 14:16:34;;;;;;;;;;;;;;;25.50;47.34;94996.19;4928052;29;7253;-60
2022/10/03 14:19:11;;;;;;;;;;;;;;;25.50;46.44;94994.19;4915294;29;9436;-60
2022/10/03 14:21:48;;;;;;;;;;;;;;;25.52;46.95;94994.44;4919904;28;7170;-60
2022/10/03 14:24:41;;;;;;;;;;;;;;;25.55;46.84;94989.94;4927658;28;7702;-60
2022/10/03 14:27:19;;;;;;;;;;;;;;;25.54;46.10;94986.44;4930574;29;9004;-61
2022/10/03 14:30:05;;;;;;;;;;;;;;;25.55;47.01;94990.72;4954940;28;7267;-60
2022/10/03 14:33:12;;;;;;;;;;;;;;;25.55;46.87;94987.19;5008690;28;7965;-61
2022/10/03 14:35:59;;;;;;;;;;;;;;;25.58;46.74;94994.47;5040233;28;7268;-60
2022/10/03 14:38:56;;;;;;;;;;;;;;;25.58;46.40;94992.44;5069549;28;8573;-60
2022/10/03 14:41:31;;;;;;;;;;;;;;;25.59;46.35;94995.97;5045458;28;7242;-60
2022/10/03 14:44:07;;;;;;;;;;;;;;;25.61;46.48;94998.97;5050560;28;7104;-60
2022/10/03 14:46:46;;;;;;;;;;;;;;;25.59;46.83;94993.97;5046486;28;7215;-60
2022/10/03 14:49:31;;;;;;;;;;;;;;;25.58;46.80;94984.19;5062798;28;7319;-60
2022/10/03 14:52:27;;;;;;;;;;;;;;;25.58;46.85;94983.47;5047580;28;7244;-60
2022/10/03 14:55:05;;;;;;;;;;;;;;;25.57;46.61;94985.44;5060750;28;7071;-61
2022/10/03 14:57:58;;;;;;;;;;;;;;;25.58;46.98;94988.97;5047710;28;7176;-61
2022/10/03 15:00:53;;;;;;;;;;;;;;;25.59;45.95;94984.94;5070043;28;9342;-60
2022/10/03 15:03:22;;;;;;;;;;;;;;;25.58;47.06;94981.44;5064898;28;7264;-60
2022/10/03 15:05:57;;;;;;;;;;;;;;;25.56;46.86;94978.44;5050415;28;9458;-61
2022/10/03 15:08:38;;;;;;;;;;;;;;;25.56;46.58;94972.91;5060032;28;7248;-61
2022/10/03 15:11:13;;;;;;;;;;;;;;;25.56;46.91;94972.91;5053132;28;7371;-60
2022/10/03 15:13:49;;;;;;;;;;;;;;;25.57;46.99;94974.44;5069946;28;6876;-61
2022/10/03 15:16:20;;;;;;;;;;;;;;;25.54;46.50;94967.16;5059027;28;9606;-60
2022/10/03 15:19:17;;;;;;;;;;;;;;;25.55;46.42;94976.19;5053588;28;9129;-61
2022/10/03 15:21:50;;;;;;;;;;;;;;;25.55;46.87;94968.69;5047676;28;7209;-60
2022/10/03 15:24:27;;;;;;;;;;;;;;;25.56;46.82;94975.66;5045787;28;8762;-60
2022/10/03 15:27:18;;;;;;;;;;;;;;;25.55;46.51;94973.41;5050042;28;7288;-60
2022/10/03 15:29:54;;;;;;;;;;;;;;;25.52;46.27;94972.41;5060442;28;7231;-60
2022/10/03 15:32:28;;;;;;;;;;;;;;;25.52;46.96;94971.66;5060010;28;9040;-60
2022/10/03 15:35:00;;;;;;;;;;;;;;;25.53;46.68;94968.41;5036588;28;7402;-60
2022/10/03 15:37:41;;;;;;;;;;;;;;;25.56;45.71;94970.16;5045124;28;9456;-61
2022/10/03 15:40:39;;;;;;;;;;;;;;;25.55;45.76;94963.16;5045306;28;7246;-60
2022/10/03 15:43:30;;;;;;;;;;;;;;;25.58;45.51;94964.91;5060586;28;9068;-60
2022/10/03 15:46:02;;;;;;;;;;;;;;;25.58;46.46;94967.66;5041126;28;9275;-61
2022/10/03 15:48:35;;;;;;;;;;;;;;;25.62;45.89;94964.69;5064647;28;7339;-61
2022/10/03 15:51:13;;;;;;;;;;;;;;;25.59;45.55;94960.16;5052647;28;9379;-61